Time;durP1;ratioP1;P1;durP2;ratioP2;P2;SDS_P1;SDS_P2;PMS_P1;PMS_P2;Temp;Humidity;BMP_temperature;BMP_pressure;BME280_temperature;BME280_humidity;BME280_pressure;Samples;Min_cycle;Max_cycle;Signal;HPM_P1;HPM_P2
2021/06/25 00:01:37;;;;;;;5.65;2.85;;;26.40;72.40;;;;;;5037756;28;20056;-91
2021/06/25 00:04:03;;;;;;;5.07;2.70;;;26.40;72.10;;;;;;5037390;28;20029;-91
2021/06/25 00:06:29;;;;;;;5.82;2.42;;;26.40;71.90;;;;;;5037873;28;20036;-92
2021/06/25 00:08:55;;;;;;;3.38;2.53;;;26.40;71.80;;;;;;5038490;28;20029;-92
2021/06/25 00:11:20;;;;;;;7.65;2.70;;;26.40;71.60;;;;;;5041566;28;20104;-92
2021/06/25 00:13:46;;;;;;;4.40;3.10;;;26.40;71.50;;;;;;5039519;28;20489;-91
2021/06/25 00:16:12;;;;;;;4.95;2.72;;;26.40;71.50;;;;;;5050954;28;20017;-91
2021/06/25 00:18:38;;;;;;;5.93;3.00;;;26.40;71.40;;;;;;5057647;28;20037;-91
2021/06/25 00:21:04;;;;;;;4.45;2.70;;;26.40;71.30;;;;;;5058145;28;20029;-91
2021/06/25 00:23:30;;;;;;;4.47;2.88;;;26.40;71.20;;;;;;5057955;28;20032;-92
2021/06/25 00:25:56;;;;;;;4.53;2.90;;;26.30;71.20;;;;;;5058217;28;20029;-91
2021/06/25 00:28:21;;;;;;;4.93;2.83;;;26.30;71.20;;;;;;5053081;28;20029;-92
2021/06/25 00:30:47;;;;;;;4.43;2.60;;;26.30;71.10;;;;;;5042321;28;20032;-91
2021/06/25 00:33:13;;;;;;;3.30;2.92;;;26.30;71.20;;;;;;5048446;28;20025;-91
2021/06/25 00:35:39;;;;;;;4.80;2.75;;;26.30;71.20;;;;;;5040409;28;20033;-92
2021/06/25 00:38:05;;;;;;;3.95;2.53;;;26.30;71.20;;;;;;5038559;28;20152;-91
2021/06/25 00:40:34;;;;;;;4.07;2.72;;;26.30;71.30;;;;;;5038131;28;20030;-91
2021/06/25 00:43:01;;;;;;;6.82;2.80;;;26.20;71.30;;;;;;5037718;28;20026;-92
2021/06/25 00:45:27;;;;;;;3.08;2.63;;;26.20;71.40;;;;;;5038879;28;20087;-91
2021/06/25 00:47:53;;;;;;;3.92;2.67;;;26.20;71.60;;;;;;5042588;28;20029;-91
2021/06/25 00:50:25;;;;;;;3.15;2.38;;;26.20;71.80;;;;;;5040912;28;20033;-91
2021/06/25 00:52:56;;;;;;;5.80;2.95;;;26.20;72.00;;;;;;5039239;28;20025;-91
2021/06/25 00:55:23;;;;;;;4.22;2.70;;;26.10;71.90;;;;;;5038253;28;20131;-91
2021/06/25 00:57:49;;;;;;;10.77;3.80;;;26.10;72.10;;;;;;5037632;28;20022;-91
2021/06/25 01:00:15;;;;;;;3.35;2.70;;;26.00;72.20;;;;;;5038670;28;20044;-91
2021/06/25 01:02:42;;;;;;;3.20;2.55;;;25.90;72.50;;;;;;5037611;28;20171;-92
2021/06/25 01:05:09;;;;;;;3.53;2.78;;;25.90;72.60;;;;;;5037752;28;20059;-92
2021/06/25 01:07:35;;;;;;;4.53;2.65;;;25.90;72.70;;;;;;5037234;28;20029;-92
2021/06/25 01:10:09;;;;;;;3.67;2.63;;;25.80;72.80;;;;;;5038262;28;20472;-91
2021/06/25 01:12:36;;;;;;;4.93;2.92;;;25.80;72.90;;;;;;5038066;28;20449;-92
2021/06/25 01:15:02;;;;;;;3.55;2.42;;;25.70;73.10;;;;;;5039225;28;20037;-91
2021/06/25 01:17:37;;;;;;;5.88;2.70;;;25.70;73.30;;;;;;5036468;28;20050;-91
2021/06/25 01:20:10;;;;;;;4.40;2.78;;;25.70;73.50;;;;;;5036277;28;20029;-91
2021/06/25 01:22:41;;;;;;;3.92;2.95;;;25.60;73.60;;;;;;5036876;28;20033;-91
2021/06/25 01:25:13;;;;;;;4.15;2.75;;;25.50;73.70;;;;;;5037675;28;20029;-91
2021/06/25 01:27:40;;;;;;;4.45;2.97;;;25.50;74.00;;;;;;5021101;28;20464;-91
2021/06/25 01:30:13;;;;;;;3.80;2.53;;;25.50;74.10;;;;;;5040306;28;20438;-91
2021/06/25 01:32:39;;;;;;;7.10;3.45;;;25.40;74.30;;;;;;5041917;28;20032;-91
2021/06/25 01:35:06;;;;;;;4.63;3.10;;;25.40;74.80;;;;;;5040534;28;20030;-91
2021/06/25 01:37:32;;;;;;;5.75;3.15;;;25.30;75.00;;;;;;5038618;28;20089;-91
2021/06/25 01:39:58;;;;;;;3.58;3.28;;;25.30;75.10;;;;;;5040523;28;20072;-91
2021/06/25 01:42:24;;;;;;;3.33;3.03;;;25.20;75.50;;;;;;5042199;28;20029;-91
2021/06/25 01:44:55;;;;;;;3.60;3.10;;;25.20;75.80;;;;;;5041967;28;20033;-92
2021/06/25 01:47:21;;;;;;;3.50;3.05;;;25.10;76.30;;;;;;5039861;28;20140;-91
2021/06/25 01:49:47;;;;;;;3.20;2.90;;;25.10;76.40;;;;;;5039039;28;20053;-91
2021/06/25 01:52:20;;;;;;;8.45;4.00;;;25.10;76.60;;;;;;5040173;28;20029;-91
2021/06/25 01:54:46;;;;;;;;;;;25.00;78.20;;;;;;5046854;28;20029;-92
2021/06/25 01:57:13;;;;;;;6.55;3.88;;;24.90;78.00;;;;;;5029247;28;19905;-91
2021/06/25 01:59:40;;;;;;;7.35;3.60;;;24.90;77.80;;;;;;5045295;28;20026;-92
2021/06/25 02:02:06;;;;;;;5.88;3.88;;;24.90;78.20;;;;;;5047678;28;20465;-92
2021/06/25 02:04:32;;;;;;;6.85;3.58;;;24.80;78.40;;;;;;5043861;28;20029;-91
2021/06/25 02:06:58;;;;;;;7.18;4.07;;;24.80;79.00;;;;;;5046302;28;20113;-91
2021/06/25 02:09:23;;;;;;;8.00;5.20;;;24.70;79.40;;;;;;5050965;28;20109;-90
2021/06/25 02:11:49;;;;;;;8.40;4.65;;;24.70;80.60;;;;;;5051549;28;20033;-91
2021/06/25 02:14:15;;;;;;;5.45;4.40;;;24.70;80.70;;;;;;5048860;28;20029;-91
2021/06/25 02:16:41;;;;;;;8.15;4.93;;;24.70;80.60;;;;;;5045727;28;20068;-91
2021/06/25 02:19:07;;;;;;;7.18;4.20;;;24.70;80.60;;;;;;5050835;28;20109;-90
2021/06/25 02:21:33;;;;;;;7.47;4.85;;;24.70;80.60;;;;;;5059760;28;20057;-91
2021/06/25 02:23:58;;;;;;;5.07;4.32;;;24.70;80.70;;;;;;5056358;28;20083;-90
2021/06/25 02:26:24;;;;;;;7.30;4.07;;;24.60;80.50;;;;;;5060227;28;20060;-90
2021/06/25 02:28:50;;;;;;;10.43;4.30;;;24.60;80.40;;;;;;5060232;28;20018;-90
2021/06/25 02:31:18;;;;;;;5.85;4.20;;;24.60;80.30;;;;;;5050052;28;20033;-92
2021/06/25 02:33:43;;;;;;;6.63;3.88;;;24.60;80.30;;;;;;5045269;28;20097;-91
2021/06/25 02:36:09;;;;;;;5.50;4.65;;;24.70;80.50;;;;;;5046134;28;20036;-91
2021/06/25 02:38:35;;;;;;;6.38;4.13;;;24.70;80.60;;;;;;5043314;28;20045;-91
2021/06/25 02:41:01;;;;;;;6.90;4.38;;;24.70;80.50;;;;;;5041490;28;20052;-91
2021/06/25 02:43:27;;;;;;;5.25;4.32;;;24.70;80.40;;;;;;5042806;28;20033;-92
2021/06/25 02:45:52;;;;;;;4.68;4.10;;;24.70;80.30;;;;;;5042587;28;20022;-91
2021/06/25 02:48:18;;;;;;;6.70;4.03;;;24.70;80.30;;;;;;5041079;28;20358;-91
2021/06/25 02:50:44;;;;;;;7.25;4.55;;;24.70;80.30;;;;;;5041630;28;20034;-91
2021/06/25 02:53:10;;;;;;;5.65;4.05;;;24.70;80.00;;;;;;5041007;28;20122;-91
2021/06/25 02:55:36;;;;;;;6.35;4.30;;;24.80;80.00;;;;;;5038616;28;20037;-91
2021/06/25 02:58:02;;;;;;;5.57;4.25;;;24.80;79.80;;;;;;5039770;28;20079;-91
2021/06/25 03:00:27;;;;;;;6.80;4.05;;;24.80;79.80;;;;;;5038956;28;20027;-90
2021/06/25 03:02:54;;;;;;;8.48;4.05;;;24.90;79.60;;;;;;5039854;28;20041;-91
2021/06/25 03:05:21;;;;;;;5.60;4.05;;;24.90;79.50;;;;;;5038657;28;20029;-91
2021/06/25 03:07:47;;;;;;;6.85;4.68;;;24.90;79.40;;;;;;5039397;28;20483;-91
2021/06/25 03:10:14;;;;;;;4.60;4.05;;;25.00;80.20;;;;;;5038621;28;20038;-91
2021/06/25 03:12:39;;;;;;;5.90;4.47;;;25.00;79.80;;;;;;5041306;28;20030;-91
2021/06/25 03:15:07;;;;;;;8.27;4.68;;;25.00;79.70;;;;;;5038650;28;20026;-91
2021/06/25 03:17:33;;;;;;;6.97;4.38;;;25.00;79.90;;;;;;5039325;28;20072;-92
2021/06/25 03:19:58;;;;;;;5.60;4.22;;;25.00;79.80;;;;;;5041774;28;20485;-91
2021/06/25 03:22:24;;;;;;;4.28;3.88;;;25.10;79.80;;;;;;5025315;28;20033;-91
2021/06/25 03:24:50;;;;;;;6.78;4.72;;;25.10;79.60;;;;;;5048753;28;20032;-91
2021/06/25 03:27:16;;;;;;;7.72;4.68;;;25.20;79.10;;;;;;5055849;28;20029;-92
2021/06/25 03:29:41;;;;;;;5.68;4.07;;;25.30;78.00;;;;;;5054909;28;20072;-91
2021/06/25 03:32:08;;;;;;;5.47;4.50;;;25.40;77.80;;;;;;5054360;28;20029;-90
2021/06/25 03:34:34;;;;;;;6.47;4.82;;;25.50;77.60;;;;;;5055508;28;20032;-90
2021/06/25 03:37:00;;;;;;;7.85;4.70;;;25.60;77.20;;;;;;5053978;28;20029;-91
2021/06/25 03:39:26;;;;;;;8.18;5.65;;;25.70;75.90;;;;;;5055155;28;20021;-91
2021/06/25 03:41:52;;;;;;;12.00;4.78;;;25.70;75.30;;;;;;5054678;28;20100;-91
2021/06/25 03:44:17;;;;;;;6.88;4.97;;;25.80;75.00;;;;;;5054925;28;20079;-91
2021/06/25 03:46:43;;;;;;;9.35;3.97;;;25.80;74.50;;;;;;5055060;28;20070;-91
2021/06/25 03:49:09;;;;;;;5.50;3.90;;;25.80;74.40;;;;;;5052929;28;20010;-92
2021/06/25 03:51:35;;;;;;;5.13;4.03;;;25.80;74.30;;;;;;5054448;28;20025;-92
2021/06/25 03:54:02;;;;;;;4.72;4.15;;;25.90;74.40;;;;;;5054889;28;20056;-91
2021/06/25 03:56:28;;;;;;;6.20;4.07;;;26.00;74.10;;;;;;5053920;28;20021;-91
2021/06/25 03:58:54;;;;;;;5.78;3.70;;;26.00;74.00;;;;;;5046780;28;20029;-91
2021/06/25 04:01:22;;;;;;;5.47;3.78;;;26.10;73.90;;;;;;5042698;28;20032;-92
2021/06/25 04:03:47;;;;;;;5.65;4.47;;;26.10;73.90;;;;;;5043869;28;20022;-91
2021/06/25 04:06:13;;;;;;;7.50;4.03;;;26.20;73.80;;;;;;5024817;28;20113;-91
2021/06/25 04:08:39;;;;;;;10.80;5.00;;;26.20;73.10;;;;;;5044173;28;20032;-91
2021/06/25 04:11:10;;;;;;;6.65;4.40;;;26.30;73.00;;;;;;5048004;28;20029;-92
2021/06/25 04:13:36;;;;;;;8.60;4.60;;;26.30;72.80;;;;;;5048254;28;20029;-91
2021/06/25 04:16:03;;;;;;;5.82;4.18;;;26.30;72.60;;;;;;5047856;28;20029;-92
2021/06/25 04:18:28;;;;;;;5.35;4.13;;;26.30;72.20;;;;;;5022590;28;20053;-92
2021/06/25 04:20:55;;;;;;;7.18;4.68;;;26.30;72.20;;;;;;5025791;28;20032;-91
2021/06/25 04:23:23;;;;;;;6.03;3.75;;;26.30;72.30;;;;;;5037912;28;20073;-90
2021/06/25 04:25:48;;;;;;;6.80;4.03;;;26.40;72.50;;;;;;5037585;28;20018;-92
2021/06/25 04:28:16;;;;;;;6.70;3.78;;;26.40;72.30;;;;;;5037978;28;20101;-92
2021/06/25 04:30:43;;;;;;;6.47;4.20;;;26.50;71.90;;;;;;5038427;28;20033;-91
2021/06/25 04:33:12;;;;;;;6.78;3.97;;;26.50;71.70;;;;;;5033285;28;20037;-91
2021/06/25 04:35:38;;;;;;;5.90;3.95;;;26.50;71.30;;;;;;5024517;28;20029;-91
2021/06/25 04:38:04;;;;;;;5.05;3.88;;;26.50;71.20;;;;;;5023214;28;20030;-91
2021/06/25 04:40:31;;;;;;;6.22;4.15;;;26.60;71.00;;;;;;5023707;28;20440;-91
2021/06/25 04:42:57;;;;;;;6.18;3.53;;;26.70;71.00;;;;;;5029042;28;20040;-90
2021/06/25 04:45:23;;;;;;;6.97;4.30;;;26.80;70.90;;;;;;5027570;28;20052;-92
2021/06/25 04:47:49;;;;;;;7.07;4.03;;;26.90;70.80;;;;;;5022008;28;20056;-90
2021/06/25 04:50:16;;;;;;;6.63;3.95;;;27.00;70.70;;;;;;5026006;28;20025;-90
2021/06/25 04:52:41;;;;;;;5.30;4.25;;;27.10;70.50;;;;;;5029698;28;20034;-91
2021/06/25 04:55:08;;;;;;;5.28;4.13;;;27.10;70.40;;;;;;5027702;28;20064;-92
2021/06/25 04:57:36;;;;;;;11.57;4.70;;;27.20;70.40;;;;;;5024497;28;20050;-91
2021/06/25 05:00:03;;;;;;;5.63;4.68;;;27.30;70.30;;;;;;5007317;28;20109;-91
2021/06/25 05:02:28;;;;;;;5.70;4.47;;;27.30;70.30;;;;;;5009462;28;20136;-91
2021/06/25 05:04:54;;;;;;;7.75;5.20;;;27.40;70.30;;;;;;5010283;28;20026;-93
2021/06/25 05:07:20;;;;;;;8.27;5.00;;;27.50;70.10;;;;;;5022545;28;20080;-92
2021/06/25 05:09:46;;;;;;;5.32;4.82;;;27.50;69.90;;;;;;5024979;28;20034;-92
2021/06/25 05:12:12;;;;;;;10.02;4.22;;;27.50;70.00;;;;;;5023455;28;20133;-92
2021/06/25 05:14:41;;;;;;;9.02;5.30;;;27.50;69.70;;;;;;5026460;28;20030;-92
2021/06/25 05:17:10;;;;;;;7.20;5.38;;;27.60;69.70;;;;;;5026852;28;20061;-93
2021/06/25 05:19:37;;;;;;;12.15;5.85;;;27.60;69.60;;;;;;5045132;28;20052;-92
2021/06/25 05:22:05;;;;;;;6.05;5.47;;;27.60;69.40;;;;;;5029422;28;20044;-92
2021/06/25 05:24:31;;;;;;;8.57;5.60;;;27.60;69.50;;;;;;5028403;28;20025;-92
2021/06/25 05:26:57;;;;;;;6.13;5.53;;;27.60;69.60;;;;;;5029278;28;20481;-93
2021/06/25 05:29:29;;;;;;;7.07;4.95;;;27.60;69.80;;;;;;5030056;28;20041;-91
2021/06/25 05:31:59;;;;;;;10.95;4.95;;;27.80;69.70;;;;;;5049861;28;20057;-92
2021/06/25 05:34:25;;;;;;;6.22;5.63;;;27.90;69.40;;;;;;5030970;28;20025;-93
2021/06/25 05:36:54;;;;;;;6.20;5.25;;;28.00;69.30;;;;;;5031827;28;20036;-93
2021/06/25 05:39:20;;;;;;;8.68;6.25;;;28.00;69.10;;;;;;5049908;28;20033;-92
2021/06/25 05:41:48;;;;;;;11.13;6.22;;;28.00;68.80;;;;;;5032698;28;20048;-92
2021/06/25 05:44:14;;;;;;;10.90;6.00;;;28.00;68.50;;;;;;5032378;28;20029;-92
2021/06/25 05:46:43;;;;;;;6.10;5.50;;;28.10;68.40;;;;;;5031538;28;20026;-92
2021/06/25 05:49:12;;;;;;;8.38;6.05;;;28.10;68.40;;;;;;5032118;28;20029;-92
2021/06/25 05:51:40;;;;;;;6.78;5.82;;;28.30;68.20;;;;;;5031216;28;20044;-92
2021/06/25 05:54:14;;;;;;;7.82;4.88;;;28.40;67.90;;;;;;5032087;28;20025;-93
2021/06/25 05:56:40;;;;;;;6.32;5.07;;;28.60;67.20;;;;;;5015880;28;20437;-91
2021/06/25 05:59:06;;;;;;;5.20;4.70;;;28.70;66.60;;;;;;5030116;28;20080;-92
2021/06/25 06:01:35;;;;;;;8.23;5.35;;;28.80;66.40;;;;;;5031564;28;20033;-92
2021/06/25 06:04:01;;;;;;;5.60;5.00;;;29.00;66.30;;;;;;5030071;28;20038;-92
2021/06/25 06:06:27;;;;;;;5.28;4.40;;;29.10;66.00;;;;;;5025415;28;20030;-92
2021/06/25 06:08:53;;;;;;;7.07;4.70;;;29.20;65.50;;;;;;5026138;28;20446;-93
2021/06/25 06:11:33;;;;;;;12.48;5.72;;;29.30;65.30;;;;;;5033660;28;20033;-92
2021/06/25 06:14:02;;;;;;;5.90;4.88;;;29.40;64.90;;;;;;5033590;28;20069;-93
2021/06/25 06:16:28;;;;;;;6.25;4.85;;;29.60;64.70;;;;;;5030300;28;20443;-93
2021/06/25 06:18:54;;;;;;;5.65;4.68;;;29.70;64.20;;;;;;5031584;28;20060;-93
2021/06/25 06:21:22;;;;;;;7.95;5.63;;;29.70;63.70;;;;;;5029985;28;20036;-92
2021/06/25 06:32:14;;;;;;;5.68;4.72;;;29.90;61.40;;;;;;5052853;28;20036;-90
2021/06/25 06:34:44;;;;;;;5.30;4.80;;;29.90;62.10;;;;;;5036474;28;20078;-92
2021/06/25 06:37:16;;;;;;;7.03;5.93;;;30.10;62.20;;;;;;5035305;28;20033;-91
2021/06/25 06:40:00;;;;;;;12.65;5.28;;;30.20;61.60;;;;;;5037364;28;20124;-92
2021/06/25 06:42:49;;;;;;;8.55;5.57;;;30.20;61.70;;;;;;5039515;28;20048;-92
2021/06/25 06:45:21;;;;;;;6.13;5.45;;;30.30;61.40;;;;;;5041314;28;20017;-93
2021/06/25 06:47:58;;;;;;;9.07;5.40;;;30.40;61.60;;;;;;5039617;28;20026;-92
2021/06/25 06:50:27;;;;;;;7.20;5.18;;;30.50;61.70;;;;;;5041806;28;20034;-91
2021/06/25 06:52:53;;;;;;;6.55;5.93;;;30.60;61.60;;;;;;5040636;28;20025;-92
2021/06/25 06:55:23;;;;;;;6.85;5.82;;;30.60;61.30;;;;;;5037160;28;20060;-92
2021/06/25 06:57:49;;;;;;;6.53;4.75;;;30.60;61.20;;;;;;5035481;28;20036;-92
2021/06/25 07:00:16;;;;;;;5.80;5.25;;;30.70;61.30;;;;;;5033584;28;20048;-91
2021/06/25 07:02:45;;;;;;;6.82;6.10;;;30.80;61.20;;;;;;5032053;28;20033;-92
2021/06/25 07:05:13;;;;;;;9.20;6.05;;;30.80;60.20;;;;;;5029444;28;20049;-92
2021/06/25 07:07:41;;;;;;;5.97;5.22;;;30.70;60.50;;;;;;5030982;28;20026;-92
2021/06/25 07:10:17;;;;;;;7.97;6.88;;;30.70;60.70;;;;;;5032191;28;20040;-92
2021/06/25 07:12:43;;;;;;;7.68;6.20;;;30.70;60.60;;;;;;5032266;28;20114;-93
2021/06/25 07:15:09;;;;;;;6.90;5.80;;;30.60;60.70;;;;;;5030350;28;20021;-92
2021/06/25 07:17:38;;;;;;;5.40;4.90;;;30.70;61.10;;;;;;5032582;28;20049;-92
2021/06/25 07:20:05;;;;;;;7.80;5.15;;;30.70;61.10;;;;;;5033320;28;20503;-92
2021/06/25 07:22:32;;;;;;;6.03;5.43;;;30.80;61.20;;;;;;5032089;28;20032;-91
2021/06/25 07:24:58;;;;;;;6.13;5.45;;;30.90;60.90;;;;;;5029343;28;20085;-91
2021/06/25 07:27:24;;;;;;;6.28;4.88;;;31.10;61.00;;;;;;5031915;28;20394;-92
2021/06/25 07:29:50;;;;;;;10.27;6.53;;;31.20;60.80;;;;;;5029342;28;20040;-92
2021/06/25 07:32:19;;;;;;;7.88;5.55;;;31.40;60.50;;;;;;5033027;28;20021;-92
2021/06/25 07:34:44;;;;;;;8.15;5.68;;;31.50;59.60;;;;;;5029937;28;20021;-92
2021/06/25 07:37:11;;;;;;;6.35;4.90;;;31.50;59.80;;;;;;5031026;28;20105;-92
2021/06/25 07:39:37;;;;;;;5.75;5.00;;;31.50;59.80;;;;;;5033630;28;20025;-91
2021/06/25 07:42:03;;;;;;;8.45;5.05;;;31.60;59.80;;;;;;5029996;28;20053;-92
2021/06/25 07:44:29;;;;;;;6.65;4.90;;;31.60;59.60;;;;;;5048284;28;20025;-91
2021/06/25 07:46:55;;;;;;;4.90;4.50;;;31.70;59.40;;;;;;5027861;28;20163;-92
2021/06/25 07:49:21;;;;;;;6.88;5.45;;;31.80;59.40;;;;;;5046475;28;20103;-92
2021/06/25 07:51:48;;;;;;;6.93;5.28;;;31.90;59.00;;;;;;5029946;28;20083;-92
2021/06/25 07:54:14;;;;;;;7.68;4.63;;;32.00;58.90;;;;;;5024394;28;20116;-92
2021/06/25 07:56:40;;;;;;;5.93;5.20;;;32.10;58.90;;;;;;5025019;28;20125;-91
2021/06/25 07:59:06;;;;;;;7.10;5.45;;;32.20;58.50;;;;;;5025866;28;20022;-92
2021/06/25 08:01:33;;;;;;;5.80;5.18;;;32.10;57.90;;;;;;5027762;28;20037;-92
2021/06/25 08:04:00;;;;;;;6.20;5.60;;;32.10;58.10;;;;;;5025320;28;20030;-92
2021/06/25 08:06:27;;;;;;;7.45;6.72;;;32.00;58.10;;;;;;5024088;28;20033;-91
2021/06/25 08:08:54;;;;;;;5.50;5.00;;;32.00;58.20;;;;;;5025158;28;20025;-92
2021/06/25 08:11:20;;;;;;;6.32;5.72;;;32.00;58.40;;;;;;5026377;28;20060;-92
2021/06/25 08:13:45;;;;;;;6.18;5.25;;;32.00;58.20;;;;;;5025163;28;20384;-92
2021/06/25 08:16:12;;;;;;;6.00;5.35;;;32.00;58.10;;;;;;5026037;28;20044;-93
2021/06/25 08:18:38;;;;;;;8.02;5.70;;;32.00;57.80;;;;;;5024551;28;20136;-92
2021/06/25 08:21:04;;;;;;;5.80;4.97;;;32.00;57.90;;;;;;5025295;28;20053;-92
2021/06/25 08:23:32;;;;;;;7.03;5.45;;;32.00;57.90;;;;;;5025439;28;20033;-92
2021/06/25 08:25:59;;;;;;;7.57;5.50;;;32.10;57.80;;;;;;5027952;28;20033;-92
2021/06/25 08:28:25;;;;;;;7.15;5.57;;;32.20;58.00;;;;;;5027442;28;20026;-93
2021/06/25 08:30:51;;;;;;;5.70;5.07;;;32.20;57.60;;;;;;5024243;28;20036;-93
2021/06/25 08:33:17;;;;;;;7.13;5.18;;;32.40;57.40;;;;;;5023595;28;20083;-93
2021/06/25 08:35:42;;;;;;;7.50;5.20;;;32.40;57.20;;;;;;5020698;28;20033;-94
2021/06/25 08:38:08;;;;;;;6.28;5.03;;;32.50;57.30;;;;;;5024583;28;20022;-92
2021/06/25 08:40:34;;;;;;;6.07;5.00;;;32.60;56.90;;;;;;5026580;28;20044;-93
2021/06/25 08:43:01;;;;;;;5.68;5.18;;;32.70;56.80;;;;;;5025101;28;20029;-92
2021/06/25 08:45:28;;;;;;;6.38;4.72;;;32.80;56.60;;;;;;5026719;28;20143;-91
2021/06/25 08:47:54;;;;;;;7.13;5.88;;;32.80;56.50;;;;;;5027838;28;20021;-93
2021/06/25 08:50:23;;;;;;;6.85;5.38;;;32.80;56.00;;;;;;5031515;28;20036;-93
2021/06/25 08:52:53;;;;;;;6.03;5.43;;;32.90;56.00;;;;;;5050904;28;20104;-92
2021/06/25 08:55:20;;;;;;;7.72;4.50;;;32.90;55.90;;;;;;5050103;28;20025;-93
2021/06/25 08:57:46;;;;;;;6.57;4.90;;;33.00;55.90;;;;;;5039734;28;20154;-91
2021/06/25 09:00:15;;;;;;;9.15;5.00;;;33.10;55.80;;;;;;5041575;28;20051;-92
2021/06/25 09:02:41;;;;;;;5.40;4.90;;;33.20;55.40;;;;;;5041538;28;20128;-93
2021/06/25 09:05:25;;;;;;;6.07;5.40;;;33.20;55.00;;;;;;5036806;28;20025;-92
2021/06/25 09:09:08;;;;;;;5.25;4.53;;;33.10;54.80;;;;;;5021356;28;20025;-91
2021/06/25 09:11:34;;;;;;;6.25;4.60;;;33.10;54.60;;;;;;5010808;28;20045;-92
2021/06/25 09:14:04;;;;;;;5.57;4.65;;;33.10;55.20;;;;;;5001472;28;20420;-92
2021/06/25 09:16:35;;;;;;;6.38;5.00;;;33.10;55.20;;;;;;5005830;28;20061;-93
2021/06/25 09:19:12;;;;;;;5.90;5.20;;;33.10;55.00;;;;;;5003845;28;20442;-92
2021/06/25 09:21:46;;;;;;;5.78;5.18;;;33.10;55.00;;;;;;5002295;28;20113;-90
2021/06/25 09:24:22;;;;;;;5.07;4.57;;;33.20;55.00;;;;;;5001029;28;20033;-92
2021/06/25 09:27:01;;;;;;;7.50;5.20;;;33.30;54.70;;;;;;5009042;28;20022;-93
2021/06/25 09:29:40;;;;;;;6.00;5.40;;;33.30;54.50;;;;;;5005934;28;20042;-92
2021/06/25 09:32:08;;;;;;;9.75;4.93;;;33.30;54.50;;;;;;5004129;28;20025;-93
2021/06/25 09:35:11;;;;;;;5.90;5.30;;;33.30;54.50;;;;;;5003602;28;20082;-92
2021/06/25 09:37:43;;;;;;;4.65;4.25;;;33.40;54.60;;;;;;4986770;28;20026;-92
2021/06/25 09:40:10;;;;;;;5.28;4.78;;;33.40;54.60;;;;;;4985319;28;20066;-92
2021/06/25 09:42:36;;;;;;;5.97;4.60;;;33.40;54.30;;;;;;4986526;28;20023;-92
2021/06/25 09:45:11;;;;;;;7.32;5.53;;;33.50;54.40;;;;;;4984620;28;20052;-91
2021/06/25 09:47:45;;;;;;;7.50;5.47;;;33.40;54.10;;;;;;5000865;28;20030;-92
2021/06/25 09:50:16;;;;;;;7.10;5.32;;;33.40;54.10;;;;;;4981905;28;20523;-94
2021/06/25 09:53:09;;;;;;;6.78;4.85;;;33.40;54.60;;;;;;4986116;28;20045;-92
2021/06/25 09:55:54;;;;;;;6.93;5.45;;;33.40;54.40;;;;;;5001371;28;20081;-92
2021/06/25 10:04:01;;;;;;;5.53;5.03;;;33.40;54.50;;;;;;5017585;28;20034;-92
2021/06/25 10:06:32;;;;;;;9.13;5.15;;;33.60;54.30;;;;;;4999661;28;20041;-92
2021/06/25 10:08:59;;;;;;;5.50;5.00;;;33.60;54.50;;;;;;5016845;28;20026;-89
2021/06/25 10:11:29;;;;;;;5.63;4.90;;;33.70;54.40;;;;;;4999558;28;20026;-91
2021/06/25 10:13:57;;;;;;;5.25;4.75;;;33.70;54.00;;;;;;4974550;28;20022;-90
2021/06/25 10:16:24;;;;;;;5.78;5.28;;;33.70;54.00;;;;;;4999213;28;20459;-92
2021/06/25 10:18:52;;;;;;;6.03;4.75;;;33.80;53.90;;;;;;5010877;28;20044;-91
2021/06/25 10:21:30;;;;;;;7.03;5.30;;;33.90;53.60;;;;;;5036471;28;20037;-91
2021/06/25 10:24:05;;;;;;;5.85;5.13;;;33.90;53.30;;;;;;5002619;28;20025;-88
2021/06/25 10:26:32;;;;;;;5.57;5.07;;;33.90;53.40;;;;;;5037555;28;20030;-89
2021/06/25 10:29:00;;;;;;;5.30;4.80;;;33.90;53.30;;;;;;5036847;28;20475;-89
2021/06/25 10:31:26;;;;;;;4.57;4.18;;;34.00;53.60;;;;;;5018765;28;20519;-89
2021/06/25 10:33:55;;;;;;;5.13;4.45;;;34.10;53.70;;;;;;5023012;28;20228;-90
2021/06/25 10:36:32;;;;;;;4.97;4.53;;;34.30;52.80;;;;;;5030810;28;20025;-91
2021/06/25 10:39:13;;;;;;;5.05;4.65;;;34.40;52.90;;;;;;5018074;28;20104;-90
2021/06/25 10:42:02;;;;;;;5.63;4.78;;;34.50;52.60;;;;;;5017209;28;20073;-91
2021/06/25 10:44:54;;;;;;;4.60;4.00;;;34.70;51.70;;;;;;5017215;28;20120;-91
2021/06/25 10:47:26;;;;;;;4.53;3.97;;;34.90;52.30;;;;;;5014919;28;20065;-91
2021/06/25 10:50:02;;;;;;;5.30;4.07;;;35.00;52.00;;;;;;5017424;28;20060;-91
2021/06/25 10:52:41;;;;;;;5.55;4.68;;;35.10;50.80;;;;;;5018052;28;20061;-92
2021/06/25 10:55:17;;;;;;;5.85;4.40;;;35.20;48.10;;;;;;5017740;28;20032;-91
2021/06/25 10:57:52;;;;;;;6.22;5.13;;;35.20;50.10;;;;;;5016910;28;20029;-92
2021/06/25 11:00:35;;;;;;;4.82;4.30;;;35.10;50.50;;;;;;5034765;28;20136;-92
2021/06/25 11:03:01;;;;;;;5.45;4.75;;;35.10;50.60;;;;;;5015358;28;20034;-91
2021/06/25 11:05:26;;;;;;;5.03;4.60;;;35.10;50.20;;;;;;4998423;28;20117;-91
2021/06/25 11:07:54;;;;;;;7.30;4.80;;;35.00;50.10;;;;;;5016276;28;20061;-91
2021/06/25 11:10:40;;;;;;;5.40;4.35;;;35.10;50.30;;;;;;5019981;28;20021;-93
2021/06/25 11:13:27;;;;;;;5.03;4.25;;;35.20;50.10;;;;;;5025521;28;20029;-92
2021/06/25 11:16:03;;;;;;;4.93;4.20;;;35.20;48.40;;;;;;5050783;28;20014;-91
2021/06/25 11:18:32;;;;;;;5.25;4.72;;;35.20;49.80;;;;;;5015440;28;20057;-92
2021/06/25 11:21:08;;;;;;;5.47;4.63;;;35.20;49.40;;;;;;5034760;28;20021;-90
2021/06/25 11:23:38;;;;;;;7.25;4.90;;;35.30;49.40;;;;;;5034261;28;20112;-89
2021/06/25 11:26:26;;;;;;;4.70;4.13;;;35.30;49.40;;;;;;5025357;28;20075;-89
2021/06/25 11:29:01;;;;;;;4.43;4.03;;;35.40;49.80;;;;;;5032200;28;20099;-90
2021/06/25 11:31:40;;;;;;;5.03;4.45;;;35.60;49.70;;;;;;5026381;28;20029;-89
2021/06/25 11:34:06;;;;;;;4.72;4.32;;;35.70;48.70;;;;;;5006866;28;20041;-89
2021/06/25 11:36:55;;;;;;;5.85;4.20;;;35.70;48.70;;;;;;5002123;28;20211;-88
2021/06/25 11:39:35;;;;;;;4.55;3.97;;;35.80;48.60;;;;;;5035857;28;20495;-86
2021/06/25 11:42:10;;;;;;;4.70;4.22;;;35.90;47.10;;;;;;4995554;28;20132;-87
2021/06/25 11:44:40;;;;;;;4.13;3.80;;;36.00;48.20;;;;;;5024776;28;20049;-89
2021/06/25 11:47:08;;;;;;;5.85;4.20;;;36.00;48.50;;;;;;5012219;28;20053;-88
2021/06/25 11:50:10;;;;;;;4.53;4.13;;;36.10;47.90;;;;;;5008516;28;20021;-88
2021/06/25 11:52:46;;;;;;;4.32;3.92;;;36.10;48.00;;;;;;5015151;28;20082;-90
2021/06/25 11:55:13;;;;;;;5.13;4.03;;;36.20;48.30;;;;;;5015318;28;20064;-90
2021/06/25 11:57:42;;;;;;;5.38;4.40;;;36.30;47.70;;;;;;5002172;28;20030;-88
2021/06/25 12:00:17;;;;;;;5.50;4.35;;;36.40;47.50;;;;;;5013713;28;20349;-89
2021/06/25 12:02:53;;;;;;;4.95;4.55;;;36.50;46.70;;;;;;5014597;28;20065;-88
2021/06/25 12:05:30;;;;;;;4.50;4.10;;;36.60;46.80;;;;;;5012285;28;20033;-91
2021/06/25 12:08:16;;;;;;;;;;;;;;;;;;;;;
2021/06/25 12:10:56;;;;;;;4.22;3.83;;;36.80;46.40;;;;;;5031286;28;20030;-89
2021/06/25 12:13:22;;;;;;;4.35;4.00;;;36.80;46.20;;;;;;5011955;28;20038;-90
2021/06/25 12:15:50;;;;;;;4.95;3.80;;;36.90;46.20;;;;;;5002620;28;20037;-89
2021/06/25 12:18:32;;;;;;;4.97;4.30;;;36.90;46.10;;;;;;5008644;28;20049;-89
2021/06/25 12:21:09;;;;;;;4.38;3.97;;;36.90;44.60;;;;;;5014712;28;20041;-90
2021/06/25 12:23:42;;;;;;;4.38;3.97;;;36.90;46.20;;;;;;5013343;28;20029;-89
2021/06/25 12:26:38;;;;;;;;;;;;;;;;;;;;;
2021/06/25 13:44:31;;;;;;;4.00;3.70;;;42.00;39.70;;;;;;1772586;23;20322;-91
2021/06/25 14:29:43;;;;;;;3.65;3.35;;;44.50;34.90;;;;;;4910063;29;20050;-89
2021/06/25 14:32:09;;;;;;;3.60;3.40;;;44.50;35.10;;;;;;4923157;29;20039;-91
2021/06/25 17:33:16;;;;;;;5.47;4.75;;;30.20;60.00;;;;;;6060674;22;5369064;-90
2021/06/25 17:35:42;;;;;;;6.50;4.38;;;30.00;61.40;;;;;;6280451;22;20011;-87
2021/06/25 17:38:07;;;;;;;8.90;4.97;;;29.90;59.90;;;;;;6279846;22;20364;-87
2021/06/25 17:40:33;;;;;;;4.60;4.03;;;29.80;60.00;;;;;;6280009;22;20053;-87
2021/06/25 17:42:59;;;;;;;6.03;4.50;;;29.80;59.50;;;;;;6282228;22;20524;-87
2021/06/25 17:45:25;;;;;;;7.20;4.72;;;29.70;59.30;;;;;;6282052;22;20032;-89
2021/06/25 17:47:52;;;;;;;7.65;5.03;;;29.70;59.30;;;;;;6313162;22;20003;-88
2021/06/25 17:50:19;;;;;;;7.85;4.60;;;29.60;59.20;;;;;;6285245;22;20404;-87
2021/06/25 17:52:46;;;;;;;5.57;4.28;;;29.50;59.40;;;;;;6279884;22;20049;-86
2021/06/25 17:55:13;;;;;;;6.57;4.65;;;29.40;59.10;;;;;;6280822;22;20011;-87
2021/06/25 17:57:40;;;;;;;6.90;5.03;;;29.40;59.50;;;;;;6281216;22;19999;-86
2021/06/25 18:00:07;;;;;;;5.68;4.80;;;29.30;59.40;;;;;;6280546;22;20110;-87
2021/06/25 18:02:33;;;;;;;7.68;4.90;;;29.20;59.30;;;;;;6282637;22;20003;-87
2021/06/25 18:04:59;;;;;;;6.50;5.18;;;29.10;59.20;;;;;;6311636;22;20326;-87
2021/06/25 18:07:24;;;;;;;8.70;4.57;;;29.00;59.20;;;;;;6311578;22;20077;-86
2021/06/25 18:09:50;;;;;;;10.85;5.63;;;28.90;59.20;;;;;;6283976;22;20021;-87